Time;durP1;ratioP1;P1;durP2;ratioP2;P2;SDS_P1;SDS_P2;PMS_P1;PMS_P2;Temp;Humidity;BMP_temperature;BMP_pressure;BME280_temperature;BME280_humidity;BME280_pressure;Samples;Min_cycle;Max_cycle;Signal;HPM_P1;HPM_P2
2022/04/30 00:00:40;;;;;;;10.25;6.43;;;;;;;7.07;100.00;103062.66;5074183;28;20115;-69
2022/04/30 00:03:06;;;;;;;10.82;6.53;;;;;;;7.05;100.00;103056.41;5074269;28;20104;-70
2022/04/30 00:05:33;;;;;;;10.45;6.63;;;;;;;7.02;100.00;103064.94;5074724;28;20032;-69
2022/04/30 00:07:59;;;;;;;10.52;6.70;;;;;;;7.03;100.00;103050.19;5073880;28;20029;-69
2022/04/30 00:10:25;;;;;;;9.85;7.00;;;;;;;6.99;100.00;103048.16;5073817;28;20111;-69
2022/04/30 00:12:50;;;;;;;11.35;6.85;;;;;;;6.87;100.00;103048.22;5073346;28;20048;-69
2022/04/30 00:15:15;;;;;;;13.60;7.13;;;;;;;6.88;100.00;103053.56;5073073;28;20451;-69
2022/04/30 00:17:41;;;;;;;11.20;6.80;;;;;;;6.86;100.00;103049.97;5073791;28;20321;-69
2022/04/30 00:20:07;;;;;;;14.15;7.03;;;;;;;6.88;100.00;103047.44;5071927;28;20041;-70
2022/04/30 00:22:33;;;;;;;13.95;7.15;;;;;;;6.81;100.00;103040.88;5073792;28;20021;-69
2022/04/30 00:24:59;;;;;;;12.73;6.78;;;;;;;6.81;100.00;103047.81;5074241;28;20085;-68
2022/04/30 00:27:24;;;;;;;13.18;6.60;;;;;;;6.75;100.00;103051.84;5072805;28;20028;-68
2022/04/30 00:29:50;;;;;;;14.68;6.60;;;;;;;6.85;100.00;103048.13;5073235;28;20027;-69
2022/04/30 00:32:16;;;;;;;25.42;8.50;;;;;;;6.85;100.00;103049.81;5073943;28;20031;-69
2022/04/30 00:34:42;;;;;;;10.80;6.72;;;;;;;6.85;100.00;103049.81;5073567;28;20051;-69
2022/04/30 00:37:07;;;;;;;13.10;6.53;;;;;;;6.77;100.00;103045.78;5073064;28;20060;-70
2022/04/30 00:39:34;;;;;;;12.40;6.90;;;;;;;6.79;100.00;103044.19;5073796;28;20039;-69
2022/04/30 00:42:00;;;;;;;10.00;6.53;;;;;;;6.83;100.00;103046.22;5072438;28;20091;-70
2022/04/30 00:44:25;;;;;;;11.82;6.50;;;;;;;6.83;100.00;103046.22;5072026;28;20165;-70
2022/04/30 00:46:51;;;;;;;9.20;6.32;;;;;;;6.80;100.00;103041.69;5072501;28;20070;-69
2022/04/30 00:49:16;;;;;;;8.20;6.07;;;;;;;6.69;100.00;103033.09;5073033;28;20047;-69
2022/04/30 00:51:46;;;;;;;11.18;6.40;;;;;;;6.57;100.00;103038.41;5071391;28;20024;-69
2022/04/30 00:54:13;;;;;;;11.13;6.38;;;;;;;6.53;100.00;103035.47;5073379;28;20414;-70
2022/04/30 00:56:45;;;;;;;11.68;6.63;;;;;;;6.58;100.00;103031.47;5068096;28;20021;-69
2022/04/30 00:59:17;;;;;;;11.93;6.63;;;;;;;6.55;100.00;103032.19;5072678;28;20040;-70
2022/04/30 01:01:44;;;;;;;11.18;6.85;;;;;;;6.47;100.00;103027.19;5073326;28;20115;-68
2022/04/30 01:04:09;;;;;;;9.57;7.10;;;;;;;6.47;100.00;103029.81;5072204;28;20036;-68
2022/04/30 01:06:56;;;;;;;16.05;7.03;;;;;;;6.54;100.00;103032.06;5073032;28;20392;-69
2022/04/30 01:09:25;;;;;;;11.00;7.10;;;;;;;6.48;100.00;103027.31;5060760;28;20077;-69
2022/04/30 01:12:08;;;;;;;10.93;6.85;;;;;;;6.54;100.00;103021.63;5072772;28;20398;-68
2022/04/30 01:14:34;;;;;;;15.30;7.47;;;;;;;6.51;100.00;103030.16;5072603;28;20138;-71
2022/04/30 01:17:00;;;;;;;10.82;6.47;;;;;;;6.55;100.00;103023.41;5072858;28;20024;-69
2022/04/30 01:19:27;;;;;;;12.30;6.10;;;;;;;6.53;100.00;103020.69;5071194;28;20040;-69
2022/04/30 01:21:56;;;;;;;9.95;6.32;;;;;;;6.53;100.00;103018.06;5071602;28;20415;-69
2022/04/30 01:24:23;;;;;;;11.25;7.05;;;;;;;6.54;100.00;103021.63;5070845;28;20024;-70
2022/04/30 01:26:53;;;;;;;10.85;6.63;;;;;;;6.57;100.00;103012.25;5061300;28;20039;-70
2022/04/30 01:29:21;;;;;;;13.38;7.00;;;;;;;6.55;100.00;103007.69;5072465;28;20035;-69
2022/04/30 01:37:25;;;;;;;12.45;6.70;;;;;;;6.60;100.00;103001.09;5070728;28;20383;-68
2022/04/30 01:40:05;;;;;;;9.68;5.95;;;;;;;6.64;100.00;103002.22;5067416;28;20020;-69
2022/04/30 01:42:35;;;;;;;9.10;6.10;;;;;;;6.68;100.00;103005.13;5072497;28;20147;-69
2022/04/30 01:45:04;;;;;;;9.77;6.43;;;;;;;6.77;100.00;102998.69;5055117;28;20017;-70
2022/04/30 01:47:30;;;;;;;11.25;7.03;;;;;;;6.77;100.00;103006.53;5072339;28;20028;-68
2022/04/30 01:49:55;;;;;;;11.55;6.75;;;;;;;6.74;100.00;102995.09;5071512;28;20488;-69
2022/04/30 01:52:21;;;;;;;11.05;6.30;;;;;;;6.71;100.00;103000.09;5071772;28;20044;-69
2022/04/30 01:54:46;;;;;;;15.43;6.95;;;;;;;6.71;100.00;102992.22;5071771;28;20024;-70
2022/04/30 01:57:12;;;;;;;11.75;6.63;;;;;;;6.66;100.00;102996.28;5080831;28;20054;-69
2022/04/30 01:59:38;;;;;;;11.60;7.03;;;;;;;6.63;100.00;102985.59;5070998;28;20035;-69
2022/04/30 02:02:05;;;;;;;10.73;6.55;;;;;;;6.66;100.00;102991.03;5071000;28;20473;-69
2022/04/30 02:04:32;;;;;;;11.85;6.40;;;;;;;6.69;100.00;102983.41;5072449;28;20024;-70
2022/04/30 02:06:59;;;;;;;11.35;6.63;;;;;;;6.65;100.00;102986.59;5071533;28;20038;-71
2022/04/30 02:09:28;;;;;;;11.70;6.45;;;;;;;6.64;100.00;102981.28;5076056;28;20031;-68
2022/04/30 02:11:57;;;;;;;10.90;6.85;;;;;;;6.53;100.00;102977.94;5075660;28;20073;-68
2022/04/30 02:14:30;;;;;;;11.00;6.78;;;;;;;6.48;100.00;102979.34;5076931;28;20028;-69
2022/04/30 02:16:55;;;;;;;9.80;7.28;;;;;;;6.61;100.00;102979.34;5076421;28;20047;-70
2022/04/30 02:19:23;;;;;;;12.85;6.95;;;;;;;6.58;100.00;102981.78;5075554;28;20049;-69
2022/04/30 02:21:49;;;;;;;10.60;6.57;;;;;;;6.61;100.00;102976.75;5075179;28;20157;-69
2022/04/30 02:24:15;;;;;;;10.15;7.25;;;;;;;6.64;100.00;102976.03;5076185;28;20025;-68
2022/04/30 02:26:41;;;;;;;9.00;6.35;;;;;;;6.68;100.00;102972.84;5074422;28;20119;-70
2022/04/30 02:29:07;;;;;;;9.57;6.53;;;;;;;6.71;100.00;102980.88;5089206;28;20122;-70
2022/04/30 02:31:33;;;;;;;9.70;6.47;;;;;;;6.78;100.00;102975.22;5074728;28;20078;-69
2022/04/30 02:33:58;;;;;;;14.98;7.10;;;;;;;6.90;100.00;102969.91;5075981;28;20058;-68
2022/04/30 02:36:27;;;;;;;12.40;7.72;;;;;;;6.91;100.00;102971.75;5076099;28;20016;-70
2022/04/30 02:38:57;;;;;;;13.07;7.13;;;;;;;6.92;100.00;102968.31;5074606;28;20111;-69
2022/04/30 02:41:23;;;;;;;10.48;7.32;;;;;;;6.94;100.00;102960.56;5075885;28;20025;-71
2022/04/30 02:43:50;;;;;;;14.50;7.15;;;;;;;6.98;100.00;102968.72;5075734;28;20440;-70
2022/04/30 02:46:16;;;;;;;11.70;7.35;;;;;;;7.05;100.00;102970.94;5075370;28;20038;-69
2022/04/30 02:48:42;;;;;;;9.55;7.13;;;;;;;7.09;100.00;102970.34;5074238;28;20391;-70
2022/04/30 02:51:09;;;;;;;11.70;6.93;;;;;;;7.11;100.00;102961.66;5075455;28;20176;-70
2022/04/30 02:53:34;;;;;;;9.93;6.22;;;;;;;7.11;100.00;102965.19;5068791;28;20357;-69
2022/04/30 02:55:59;;;;;;;13.10;6.43;;;;;;;7.14;100.00;102965.38;5075337;28;20086;-68
2022/04/30 03:01:09;;;;;;;12.70;6.30;;;;;;;7.27;100.00;102956.63;5074710;28;20032;-68
2022/04/30 03:03:34;;;;;;;9.68;6.22;;;;;;;7.35;100.00;102957.09;5074924;28;20476;-70
2022/04/30 03:06:00;;;;;;;12.63;6.67;;;;;;;7.31;100.00;102956.00;5074416;28;20479;-69
2022/04/30 03:08:26;;;;;;;6.95;5.82;;;;;;;7.36;100.00;102954.56;5074168;28;20245;-71
2022/04/30 03:10:54;;;;;;;11.02;6.03;;;;;;;7.33;100.00;102949.16;5075256;28;20033;-69
2022/04/30 03:13:20;;;;;;;16.95;6.90;;;;;;;7.32;100.00;102955.19;5075326;28;20047;-70
2022/04/30 03:15:47;;;;;;;8.43;6.47;;;;;;;7.33;100.00;102949.16;5074539;28;20437;-69
2022/04/30 03:21:44;;;;;;;12.15;6.38;;;;;;;7.34;100.00;102945.72;5073573;28;20128;-69
2022/04/30 03:23:44;;;;;;;16.05;8.98;;;;;;;7.35;100.00;102949.22;5067719;28;20112;-70
2022/04/30 03:26:11;;;;;;;13.27;6.93;;;;;;;7.41;100.00;102939.16;5074602;28;20062;-70
2022/04/30 03:28:38;;;;;;;9.35;6.03;;;;;;;7.39;100.00;102946.94;5073282;28;20428;-70
2022/04/30 03:31:05;;;;;;;9.98;5.85;;;;;;;7.40;100.00;102946.09;5075061;28;20028;-71
2022/04/30 03:33:31;;;;;;;14.30;6.80;;;;;;;7.43;100.00;102938.47;5075084;28;20040;-70
2022/04/30 03:35:56;;;;;;;8.10;6.00;;;;;;;7.41;100.00;102932.19;5074004;28;20071;-70
2022/04/30 03:38:22;;;;;;;8.32;5.90;;;;;;;7.49;100.00;102937.00;5073873;28;20103;-69
2022/04/30 03:40:48;;;;;;;10.23;6.68;;;;;;;7.47;100.00;102933.41;5074614;28;20047;-70
2022/04/30 03:43:15;;;;;;;10.35;6.65;;;;;;;7.48;100.00;102930.88;5073002;28;20033;-69
2022/04/30 03:45:41;;;;;;;7.55;5.97;;;;;;;7.54;100.00;102931.28;5074495;28;20029;-69
2022/04/30 03:48:07;;;;;;;8.50;6.10;;;;;;;7.58;100.00;102927.09;5073810;28;20534;-69
2022/04/30 03:50:32;;;;;;;10.30;5.95;;;;;;;7.57;100.00;102926.22;5073345;28;20487;-70
2022/04/30 03:52:58;;;;;;;12.07;6.15;;;;;;;7.50;100.00;102923.09;5074281;28;20044;-71
2022/04/30 03:55:23;;;;;;;7.43;5.72;;;;;;;7.56;100.00;102924.41;5073043;28;20047;-70
2022/04/30 03:57:49;;;;;;;12.95;6.32;;;;;;;7.60;100.00;102920.25;5073707;28;20071;-70
2022/04/30 04:00:15;;;;;;;11.65;6.00;;;;;;;7.63;100.00;102920.44;5074833;28;20032;-70
2022/04/30 04:02:41;;;;;;;8.30;5.43;;;;;;;7.67;100.00;102911.97;5074082;28;20066;-69
2022/04/30 04:05:12;;;;;;;11.32;5.90;;;;;;;7.70;100.00;102912.16;5074794;28;20031;-70
2022/04/30 04:07:41;;;;;;;12.57;6.45;;;;;;;7.67;100.00;102911.97;5072210;28;20032;-69
2022/04/30 04:10:09;;;;;;;8.52;6.35;;;;;;;7.72;100.00;102925.38;5074090;28;20392;-69
2022/04/30 04:12:34;;;;;;;9.50;6.43;;;;;;;7.74;100.00;102919.38;5074149;28;20505;-69
2022/04/30 04:17:43;;;;;;;11.60;6.72;;;;;;;7.82;100.00;102919.88;5061345;28;20055;-70
2022/04/30 04:20:11;;;;;;;10.85;7.00;;;;;;;7.84;100.00;102920.88;5073119;28;20068;-69
2022/04/30 04:22:37;;;;;;;9.75;6.55;;;;;;;7.86;100.00;102934.06;5073303;28;20082;-69
2022/04/30 04:27:55;;;;;;;9.77;6.28;;;;;;;7.88;100.00;102940.28;5073380;28;20044;-68
2022/04/30 04:30:25;;;;;;;9.18;6.20;;;;;;;7.84;100.00;102935.69;5073002;28;20474;-69
2022/04/30 04:32:51;;;;;;;7.50;6.07;;;;;;;7.88;100.00;102932.44;5061072;28;20024;-69
2022/04/30 04:35:17;;;;;;;9.35;6.07;;;;;;;7.89;100.00;102939.50;5073869;28;20529;-71
2022/04/30 04:37:43;;;;;;;11.32;6.75;;;;;;;7.93;100.00;102933.63;5077920;28;20035;-70
2022/04/30 04:40:09;;;;;;;11.02;6.68;;;;;;;7.88;100.00;102937.69;5073467;28;20504;-69
2022/04/30 04:42:35;;;;;;;10.80;7.18;;;;;;;7.88;100.00;102940.28;5072241;28;20450;-69
2022/04/30 04:45:01;;;;;;;9.85;6.45;;;;;;;7.90;100.00;102933.44;5069848;28;20021;-70
2022/04/30 04:47:26;;;;;;;10.77;6.63;;;;;;;7.89;100.00;102937.75;5072049;28;20024;-70
2022/04/30 04:49:51;;;;;;;10.50;6.25;;;;;;;7.88;100.00;102940.28;5073761;28;20488;-70
2022/04/30 04:52:17;;;;;;;9.45;6.72;;;;;;;7.93;100.00;102941.50;5073597;28;20059;-68
2022/04/30 04:54:42;;;;;;;13.63;7.60;;;;;;;7.94;100.00;102938.97;5073432;28;20047;-69
2022/04/30 04:57:08;;;;;;;12.32;6.43;;;;;;;7.95;100.00;102939.88;5072539;28;20032;-70
2022/04/30 04:59:33;;;;;;;10.05;6.32;;;;;;;7.98;100.00;102941.78;5073461;28;20024;-68
2022/04/30 05:01:59;;;;;;;9.50;6.35;;;;;;;7.99;100.00;102941.88;5071819;28;20485;-69
2022/04/30 05:04:24;;;;;;;11.00;6.18;;;;;;;8.01;100.00;102953.34;5073032;28;20024;-69
2022/04/30 05:06:50;;;;;;;10.27;7.03;;;;;;;8.00;100.00;102946.28;5072801;28;20020;-69
2022/04/30 05:09:15;;;;;;;11.82;6.20;;;;;;;8.00;100.00;102950.63;5071835;28;20040;-70
2022/04/30 05:11:41;;;;;;;11.93;6.15;;;;;;;7.97;100.00;102958.31;5072712;28;20103;-69
2022/04/30 05:14:06;;;;;;;14.18;6.38;;;;;;;8.01;100.00;102953.34;5073104;28;20111;-69
2022/04/30 05:16:32;;;;;;;12.45;5.78;;;;;;;8.03;100.00;102954.38;5072346;28;20107;-70
2022/04/30 05:18:57;;;;;;;10.00;6.13;;;;;;;8.06;100.00;102954.53;5071438;28;20129;-69
2022/04/30 05:21:23;;;;;;;9.07;6.90;;;;;;;8.07;100.00;102956.38;5072354;28;20098;-69
2022/04/30 05:23:48;;;;;;;12.02;7.30;;;;;;;8.12;100.00;102946.13;5073074;28;20039;-70
2022/04/30 05:26:13;;;;;;;10.90;6.68;;;;;;;8.15;100.00;102950.66;5072650;28;20086;-69
2022/04/30 05:28:38;;;;;;;9.32;6.22;;;;;;;8.17;100.00;102956.94;5072409;28;20028;-69
2022/04/30 05:31:07;;;;;;;10.88;6.30;;;;;;;8.16;100.00;102955.09;5068798;28;20027;-71
2022/04/30 05:33:35;;;;;;;9.73;6.20;;;;;;;8.16;100.00;102956.00;5065221;28;20051;-69
2022/04/30 05:36:03;;;;;;;10.32;7.32;;;;;;;8.16;100.00;102956.00;5069906;28;20044;-70
2022/04/30 05:38:28;;;;;;;13.73;7.05;;;;;;;8.19;100.00;102948.34;5071694;28;20028;-70
2022/04/30 05:40:54;;;;;;;9.27;6.55;;;;;;;8.21;100.00;102954.56;5072460;28;20032;-69
2022/04/30 05:43:19;;;;;;;10.38;6.85;;;;;;;8.23;100.00;102949.41;5066009;28;20025;-70
2022/04/30 05:45:45;;;;;;;9.45;6.50;;;;;;;8.25;100.00;102950.44;5071996;28;20016;-70
2022/04/30 05:48:10;;;;;;;10.18;7.13;;;;;;;8.30;100.00;102954.19;5070647;28;20048;-70
2022/04/30 05:50:36;;;;;;;11.05;6.03;;;;;;;8.33;100.00;102948.22;5067853;28;20103;-70
2022/04/30 05:53:01;;;;;;;10.70;6.85;;;;;;;8.38;100.00;102945.09;5073942;28;20131;-70
2022/04/30 05:55:28;;;;;;;11.25;6.32;;;;;;;8.40;100.00;102945.19;5070803;28;20096;-69
2022/04/30 05:57:53;;;;;;;11.05;6.10;;;;;;;8.42;100.00;102948.78;5069393;28;20028;-70
2022/04/30 06:00:19;;;;;;;10.68;6.57;;;;;;;8.44;100.00;102947.19;5070311;28;20070;-68
2022/04/30 06:02:44;;;;;;;12.70;6.68;;;;;;;8.48;100.00;102937.78;5068784;28;20502;-69
2022/04/30 06:05:10;;;;;;;10.60;6.72;;;;;;;8.46;100.00;102939.44;5071427;28;21378;-69
2022/04/30 06:07:36;;;;;;;13.07;6.28;;;;;;;8.49;100.00;102934.34;5067174;28;20021;-68
2022/04/30 06:10:04;;;;;;;8.95;5.85;;;;;;;8.50;100.00;102936.16;5066738;28;20024;-69
2022/04/30 06:12:29;;;;;;;9.68;6.10;;;;;;;8.54;100.00;102938.16;5071979;28;20099;-69
2022/04/30 06:14:55;;;;;;;10.63;5.75;;;;;;;8.48;100.00;102938.72;5068896;28;20032;-68
2022/04/30 06:17:21;;;;;;;10.40;6.35;;;;;;;8.54;100.00;102943.41;5066822;28;20020;-71
2022/04/30 06:19:46;;;;;;;9.93;6.50;;;;;;;8.63;100.00;102948.28;5066944;28;20055;-70
2022/04/30 06:22:11;;;;;;;9.20;5.88;;;;;;;8.69;100.00;102954.78;5066246;28;20098;-70
2022/04/30 06:24:37;;;;;;;10.70;5.78;;;;;;;8.77;100.00;102952.63;5070785;28;20024;-69
2022/04/30 06:27:02;;;;;;;13.95;6.18;;;;;;;8.78;100.00;102950.06;5060030;28;20472;-68
2022/04/30 06:29:28;;;;;;;7.85;5.78;;;;;;;8.80;100.00;102950.16;5069889;28;20060;-70
2022/04/30 06:31:55;;;;;;;8.15;5.55;;;;;;;8.80;100.00;102951.91;5068350;28;20096;-71
2022/04/30 06:34:20;;;;;;;8.30;5.10;;;;;;;8.78;100.00;102944.81;5065568;28;20025;-69
2022/04/30 06:36:46;;;;;;;9.85;5.53;;;;;;;8.80;100.00;102952.78;5060733;28;20112;-69
2022/04/30 06:39:11;;;;;;;9.63;5.65;;;;;;;8.76;100.00;102948.19;5068019;28;20033;-71
2022/04/30 06:41:37;;;;;;;11.95;6.32;;;;;;;8.75;100.00;102947.28;5070549;28;20040;-68
2022/04/30 06:44:02;;;;;;;10.38;6.22;;;;;;;8.72;100.00;102948.81;5071563;28;20017;-69
2022/04/30 06:46:28;;;;;;;8.75;5.72;;;;;;;8.72;100.00;102946.19;5066875;28;20129;-69
2022/04/30 06:48:53;;;;;;;12.70;6.28;;;;;;;8.74;100.00;102945.47;5069609;28;20442;-69
2022/04/30 06:51:18;;;;;;;7.25;5.50;;;;;;;8.78;100.00;102944.81;5071505;28;20038;-72
2022/04/30 06:59:12;;;;;;;12.85;6.35;;;;;;;9.05;100.00;102941.09;5072107;28;20043;-70
2022/04/30 07:01:59;;;;;;;8.73;5.85;;;;;;;9.19;100.00;102947.09;5074060;28;20021;-69
2022/04/30 07:04:24;;;;;;;11.45;5.85;;;;;;;9.28;99.68;102945.00;5077119;28;20493;-71
2022/04/30 07:06:50;;;;;;;8.57;5.45;;;;;;;9.35;99.38;102936.63;5075023;28;20104;-72
2022/04/30 07:09:16;;;;;;;17.83;6.50;;;;;;;9.47;98.98;102938.13;5067992;28;20032;-71
2022/04/30 07:11:42;;;;;;;11.60;6.18;;;;;;;9.53;99.36;102934.09;5073999;28;20016;-72
2022/04/30 07:14:07;;;;;;;7.43;5.45;;;;;;;9.53;98.62;102936.72;5075253;28;20031;-71
2022/04/30 07:16:33;;;;;;;14.60;5.40;;;;;;;9.53;97.20;102935.84;5074881;28;20024;-71
2022/04/30 07:19:01;;;;;;;8.73;5.50;;;;;;;9.60;98.35;102935.34;5070373;28;20515;-71
2022/04/30 07:21:28;;;;;;;9.38;5.47;;;;;;;9.77;98.65;102934.53;5073768;28;20082;-71
2022/04/30 07:23:54;;;;;;;7.30;5.22;;;;;;;9.87;96.57;102929.78;5073097;28;20040;-71
2022/04/30 07:26:19;;;;;;;10.27;4.97;;;;;;;9.94;96.22;102926.63;5074190;28;20039;-71
2022/04/30 07:28:46;;;;;;;8.68;4.95;;;;;;;10.05;94.00;102929.81;5071533;28;20024;-71
2022/04/30 07:31:11;;;;;;;8.15;5.03;;;;;;;10.18;93.76;102931.38;5073142;28;20129;-72
2022/04/30 07:33:37;;;;;;;10.82;4.60;;;;;;;10.23;91.45;102932.53;5077700;28;20111;-74
2022/04/30 07:36:03;;;;;;;6.35;3.83;;;;;;;10.20;91.34;102933.28;5073145;28;20020;-72
2022/04/30 07:38:28;;;;;;;7.28;4.13;;;;;;;10.16;89.10;102926.03;5072331;28;20052;-72
2022/04/30 07:40:54;;;;;;;8.75;4.22;;;;;;;10.20;89.30;102929.72;5072827;28;20060;-71
2022/04/30 07:43:19;;;;;;;5.18;3.78;;;;;;;10.25;88.52;102925.59;5072120;28;20032;-72
2022/04/30 07:45:45;;;;;;;10.00;4.65;;;;;;;10.34;87.72;102925.19;5071034;28;20058;-72
2022/04/30 07:48:10;;;;;;;9.02;3.72;;;;;;;10.47;85.74;102925.00;5072768;28;20024;-71
2022/04/30 07:50:36;;;;;;;7.90;3.60;;;;;;;10.56;83.37;102921.94;5072231;28;20095;-71
2022/04/30 07:53:04;;;;;;;6.03;3.25;;;;;;;10.55;81.64;102917.50;5073377;28;20464;-71
2022/04/30 07:55:29;;;;;;;13.05;4.13;;;;;;;10.62;82.71;102919.59;5074611;28;20532;-71
2022/04/30 07:57:54;;;;;;;7.93;3.60;;;;;;;10.75;84.50;102919.38;5072405;28;20107;-72
2022/04/30 08:00:20;;;;;;;5.97;3.60;;;;;;;10.94;83.76;102915.03;5073543;28;20033;-71
2022/04/30 08:02:47;;;;;;;4.05;3.50;;;;;;;10.99;83.67;102917.88;5072268;28;20468;-72
2022/04/30 08:05:12;;;;;;;5.93;3.85;;;;;;;11.28;83.85;102914.00;5072355;28;20024;-71
2022/04/30 08:07:38;;;;;;;5.25;3.75;;;;;;;11.60;81.77;102911.97;5073597;28;20119;-71
2022/04/30 08:10:03;;;;;;;8.75;4.05;;;;;;;11.71;80.23;102917.72;5086658;28;20032;-72
2022/04/30 08:12:29;;;;;;;8.98;3.70;;;;;;;11.75;79.02;102909.13;5073663;28;20036;-73
2022/04/30 08:14:54;;;;;;;8.27;3.60;;;;;;;11.66;81.97;102912.22;5072809;28;20024;-72
2022/04/30 08:17:19;;;;;;;12.23;3.88;;;;;;;11.47;81.93;102910.47;5072805;28;20479;-71
2022/04/30 08:19:45;;;;;;;9.90;3.85;;;;;;;11.23;82.09;102915.50;5068862;28;20499;-71
2022/04/30 08:22:10;;;;;;;5.30;3.42;;;;;;;11.11;82.48;102915.84;5071357;28;20123;-71
2022/04/30 08:24:35;;;;;;;7.20;3.58;;;;;;;11.03;82.21;102910.19;5073412;28;20052;-71
2022/04/30 08:27:01;;;;;;;6.72;3.25;;;;;;;11.18;81.67;102912.66;5071821;28;20032;-73
2022/04/30 08:29:28;;;;;;;4.28;2.92;;;;;;;11.39;80.39;102907.47;5072178;28;20047;-70
2022/04/30 08:31:55;;;;;;;6.38;2.95;;;;;;;11.64;80.59;102908.63;5071264;28;20075;-73
2022/04/30 08:34:20;;;;;;;7.10;3.47;;;;;;;11.68;78.63;102904.38;5068927;28;20103;-72
2022/04/30 08:36:46;;;;;;;5.88;3.17;;;;;;;11.63;78.19;102907.72;5071672;28;20035;-72
2022/04/30 08:39:11;;;;;;;6.18;3.10;;;;;;;11.77;79.11;102910.06;5071336;28;20080;-72
2022/04/30 08:41:41;;;;;;;4.32;3.00;;;;;;;12.05;76.90;102909.59;5071114;28;20024;-73
2022/04/30 08:44:06;;;;;;;8.25;2.88;;;;;;;12.27;76.88;102913.16;5073282;28;20028;-72
2022/04/30 08:46:32;;;;;;;9.38;2.95;;;;;;;12.28;75.63;102907.06;5070879;28;20051;-73
2022/04/30 08:48:59;;;;;;;5.50;3.33;;;;;;;12.28;76.35;102905.31;5068410;28;20036;-73
2022/04/30 08:51:24;;;;;;;4.40;2.60;;;;;;;12.11;74.42;102904.59;5070536;28;20030;-72
2022/04/30 08:53:50;;;;;;;7.28;3.08;;;;;;;12.07;75.22;102904.38;5080027;28;20019;-73
2022/04/30 08:56:15;;;;;;;6.65;3.00;;;;;;;11.73;77.16;102909.03;5072241;28;20073;-71
2022/04/30 08:58:41;;;;;;;4.75;3.55;;;;;;;11.53;81.52;102912.50;5070094;28;20031;-72
2022/04/30 09:01:09;;;;;;;8.55;3.53;;;;;;;11.33;83.37;102916.84;5065558;28;20591;-72
2022/04/30 09:03:36;;;;;;;6.30;3.08;;;;;;;11.25;84.42;102914.75;5068580;28;20085;-72
2022/04/30 09:06:03;;;;;;;7.90;3.08;;;;;;;11.08;86.25;102926.22;5071651;28;20024;-72
2022/04/30 09:08:29;;;;;;;6.82;3.63;;;;;;;10.95;87.04;102916.84;5067264;28;20036;-72
2022/04/30 09:11:07;;;;;;;5.35;3.85;;;;;;;10.90;90.21;102918.34;5068414;28;20164;-73
2022/04/30 09:13:44;;;;;;;8.30;3.70;;;;;;;10.80;92.83;102922.25;5070920;28;20021;-72
2022/04/30 09:16:23;;;;;;;10.27;3.97;;;;;;;10.89;95.10;102919.16;5072735;28;20111;-72
2022/04/30 09:18:50;;;;;;;8.88;4.10;;;;;;;10.77;98.09;102915.09;5070825;28;20502;-72
2022/04/30 09:21:17;;;;;;;3.35;3.03;;;;;;;10.56;94.68;102914.03;5071808;28;20044;-72
2022/04/30 09:23:43;;;;;;;5.68;4.07;;;;;;;10.53;96.89;102914.78;5072374;28;20026;-72
2022/04/30 09:26:09;;;;;;;5.88;3.67;;;;;;;10.46;97.40;102915.31;5072284;28;20024;-72
2022/04/30 09:28:37;;;;;;;8.73;4.00;;;;;;;10.46;97.77;102917.94;5072720;28;20383;-72
2022/04/30 09:31:13;;;;;;;6.63;4.10;;;;;;;10.46;99.50;102918.84;5072456;28;20035;-72
2022/04/30 09:33:57;;;;;;;6.90;3.85;;;;;;;10.36;98.96;102921.81;5072671;28;20529;-71
2022/04/30 09:39:18;;;;;;;7.07;4.75;;;;;;;10.10;97.69;102904.66;5071439;28;20047;-72
2022/04/30 09:41:44;;;;;;;6.28;3.42;;;;;;;10.28;98.44;102913.50;5070502;28;20078;-73
2022/04/30 09:44:12;;;;;;;8.07;3.47;;;;;;;10.40;99.72;102913.25;5072317;28;20028;-73
2022/04/30 09:46:39;;;;;;;5.63;3.90;;;;;;;10.50;100.00;102905.81;5071107;28;20024;-71
2022/04/30 09:54:36;;;;;;;7.03;4.07;;;;;;;10.61;100.00;102902.00;5073065;28;20507;-72
2022/04/30 09:57:04;;;;;;;5.75;3.70;;;;;;;10.50;100.00;102896.22;5069177;28;20460;-73
2022/04/30 09:59:30;;;;;;;9.43;4.15;;;;;;;10.41;100.00;102891.38;5072531;28;20032;-73
2022/04/30 10:01:56;;;;;;;6.57;4.00;;;;;;;10.40;100.00;102888.66;5070085;28;20074;-72
2022/04/30 10:04:23;;;;;;;7.70;4.20;;;;;;;10.36;100.00;102889.34;5071226;28;20550;-70
2022/04/30 10:06:51;;;;;;;5.65;3.70;;;;;;;10.26;100.00;102885.31;5071205;28;20094;-70
2022/04/30 10:09:26;;;;;;;7.03;4.00;;;;;;;10.27;100.00;102882.75;5072468;28;20032;-70
2022/04/30 10:12:19;;;;;;;7.30;4.85;;;;;;;10.35;100.00;102892.78;5072319;28;20043;-71
2022/04/30 10:15:01;;;;;;;9.32;4.65;;;;;;;10.15;100.00;102881.22;5067473;28;20606;-71
2022/04/30 10:17:29;;;;;;;8.70;4.43;;;;;;;10.24;100.00;102879.06;5069440;28;20021;-69
2022/04/30 10:20:12;;;;;;;8.13;3.60;;;;;;;10.42;100.00;102873.88;5054487;28;20044;-69
2022/04/30 10:22:52;;;;;;;6.63;3.17;;;;;;;10.60;98.93;102869.50;5065757;28;20052;-70
2022/04/30 10:25:38;;;;;;;5.93;3.25;;;;;;;10.80;98.94;102862.56;5071208;28;20087;-70
2022/04/30 10:28:05;;;;;;;7.57;2.78;;;;;;;10.93;94.58;102853.53;5064227;28;20102;-70
2022/04/30 10:30:30;;;;;;;8.90;2.55;;;;;;;11.14;94.35;102853.63;5074464;28;20040;-71
2022/04/30 10:33:06;;;;;;;6.13;2.20;;;;;;;11.33;92.73;102849.22;5076361;28;20036;-69
2022/04/30 10:35:38;;;;;;;5.57;2.55;;;;;;;11.44;94.01;102847.97;5062225;28;20079;-70
2022/04/30 10:38:21;;;;;;;4.22;2.30;;;;;;;11.46;94.72;102841.03;5074502;28;20025;-72
2022/04/30 10:40:51;;;;;;;7.75;2.80;;;;;;;11.59;93.13;102842.47;5071666;28;20052;-70
2022/04/30 10:43:27;;;;;;;6.65;3.50;;;;;;;11.70;93.70;102842.97;5067919;28;20028;-70
2022/04/30 10:45:55;;;;;;;7.90;2.85;;;;;;;11.75;92.41;102849.34;5075879;28;20067;-70
2022/04/30 10:48:21;;;;;;;4.25;2.38;;;;;;;11.75;89.53;102844.06;5073255;28;20502;-71
2022/04/30 10:50:51;;;;;;;3.25;2.20;;;;;;;11.73;86.69;102840.44;5071925;28;20021;-72
2022/04/30 10:53:21;;;;;;;7.35;2.80;;;;;;;11.84;90.06;102840.03;5073655;28;20021;-71
2022/04/30 10:55:48;;;;;;;8.63;2.80;;;;;;;11.78;88.11;102833.63;5071843;28;20029;-71
2022/04/30 10:58:21;;;;;;;7.57;2.63;;;;;;;11.79;87.41;102831.94;5074431;28;20407;-73
2022/04/30 11:00:47;;;;;;;4.28;2.58;;;;;;;11.81;90.24;102833.78;5075781;28;20060;-72
2022/04/30 11:03:12;;;;;;;10.25;2.80;;;;;;;11.96;90.32;102832.66;5073288;28;20063;-70
2022/04/30 11:05:37;;;;;;;3.50;2.38;;;;;;;12.05;88.20;102834.81;5073563;28;20499;-72
2022/04/30 11:08:03;;;;;;;3.80;2.55;;;;;;;12.03;87.29;102833.84;5075711;28;20086;-70
2022/04/30 11:10:31;;;;;;;4.05;2.40;;;;;;;12.26;85.25;102829.53;5071773;28;20094;-71
2022/04/30 11:13:03;;;;;;;3.35;2.50;;;;;;;12.50;83.98;102828.75;5075369;28;20031;-71
2022/04/30 11:15:29;;;;;;;2.70;1.80;;;;;;;12.75;82.71;102828.88;5074316;28;20043;-72
2022/04/30 11:17:58;;;;;;;5.15;1.90;;;;;;;12.90;83.91;102832.97;5072454;28;20372;-71
2022/04/30 11:20:25;;;;;;;2.03;1.50;;;;;;;12.90;78.98;102823.31;5072712;28;20059;-72
2022/04/30 11:22:55;;;;;;;6.10;1.92;;;;;;;12.97;78.99;102824.44;5073501;28;20392;-71
2022/04/30 11:25:21;;;;;;;2.97;1.73;;;;;;;13.12;82.35;102821.50;5073322;28;20032;-70
2022/04/30 11:27:46;;;;;;;5.03;2.00;;;;;;;13.25;76.76;102822.84;5079560;28;20028;-70
2022/04/30 11:30:12;;;;;;;4.57;1.70;;;;;;;13.23;76.24;102820.13;5073263;28;20028;-70
2022/04/30 11:32:37;;;;;;;2.40;1.52;;;;;;;13.36;74.94;102821.53;5073146;28;20095;-72
2022/04/30 11:35:04;;;;;;;3.30;1.83;;;;;;;13.45;74.60;102819.22;5072738;28;20020;-72
2022/04/30 11:37:38;;;;;;;3.00;1.23;;;;;;;13.64;73.53;102822.53;5075121;28;20375;-72
2022/04/30 11:40:04;;;;;;;3.83;1.50;;;;;;;13.79;76.21;102823.06;5074025;28;20040;-72
2022/04/30 11:42:30;;;;;;;7.63;1.90;;;;;;;13.85;78.50;102825.03;5072207;28;20396;-72
2022/04/30 11:44:55;;;;;;;3.45;1.00;;;;;;;14.02;66.84;102811.50;5072220;28;20040;-69
2022/04/30 11:47:21;;;;;;;4.20;1.38;;;;;;;14.48;68.85;102819.19;5072698;28;20094;-73
2022/04/30 11:49:46;;;;;;;4.15;1.10;;;;;;;15.04;65.08;102815.63;5071172;28;20029;-72
2022/04/30 11:52:14;;;;;;;1.45;0.90;;;;;;;15.21;64.16;102812.59;5072731;28;20114;-71